createdAt,value
2024-01-12T00:00:20.241Z,-3.08
2024-01-12T00:05:46.590Z,-3.14
2024-01-12T00:10:50.714Z,-3.27
2024-01-12T00:15:54.307Z,-3.36
2024-01-12T00:21:00.710Z,-3.44
2024-01-12T00:26:07.143Z,-3.51
2024-01-12T00:31:10.802Z,-3.57
2024-01-12T00:36:34.684Z,-3.69
2024-01-12T00:41:43.819Z,-3.71
2024-01-12T00:46:52.472Z,-3.76
2024-01-12T00:51:59.137Z,-3.83
2024-01-12T00:57:02.716Z,-3.83
2024-01-12T01:02:09.447Z,-3.84
2024-01-12T01:07:33.266Z,-3.95
2024-01-12T01:13:39.809Z,-4.13
2024-01-12T01:19:01.092Z,-4.20
2024-01-12T01:24:07.263Z,-4.25
2024-01-12T01:30:02.467Z,-4.31
2024-01-12T01:35:46.022Z,-4.35
2024-01-12T01:41:08.177Z,-4.38
2024-01-12T01:46:31.600Z,-4.42
2024-01-12T01:51:40.994Z,-4.46
2024-01-12T01:56:48.179Z,-4.54
2024-01-12T02:01:57.081Z,-4.59
2024-01-12T02:07:00.940Z,-4.66
2024-01-12T02:12:08.215Z,-4.72
2024-01-12T02:17:11.816Z,-4.76
2024-01-12T02:23:16.013Z,-4.81
2024-01-12T02:28:20.288Z,-4.91
2024-01-12T02:33:23.976Z,-4.96
2024-01-12T02:39:18.961Z,-5.03
2024-01-12T02:44:57.259Z,-5.09
2024-01-12T02:50:01.052Z,-5.18
2024-01-12T02:55:08.221Z,-5.19
2024-01-12T03:00:12.719Z,-5.13
2024-01-12T03:06:09.490Z,-5.13
2024-01-12T03:12:03.333Z,-5.09
2024-01-12T03:17:46.158Z,-5.05
2024-01-12T03:23:16.097Z,-4.99
2024-01-12T03:28:38.778Z,-4.92
2024-01-12T03:34:25.759Z,-4.97
2024-01-12T07:26:05.607Z,-2.72
2024-01-12T07:31:56.153Z,-2.74
2024-01-12T07:37:20.149Z,-2.83
2024-01-12T07:43:14.353Z,-2.86
2024-01-12T07:48:23.662Z,-2.88
2024-01-12T07:53:32.808Z,-2.93
2024-01-12T07:59:37.009Z,-2.96
2024-01-12T08:04:50.914Z,-2.92
2024-01-12T08:09:54.704Z,-2.86
2024-01-12T08:15:01.066Z,-2.78
2024-01-12T08:20:39.220Z,-2.64
2024-01-12T08:26:03.995Z,-2.46
2024-01-12T08:31:07.417Z,-2.33
2024-01-12T08:36:31.346Z,-2.20
2024-01-12T08:41:38.021Z,-2.09
2024-01-12T08:47:01.131Z,-1.99
2024-01-12T08:52:35.643Z,-1.90
2024-01-12T08:58:29.246Z,-1.81
2024-01-12T09:04:13.835Z,-1.72
2024-01-12T09:09:58.007Z,-1.66
2024-01-12T09:15:35.698Z,-1.55
2024-01-12T09:21:22.156Z,-1.41
2024-01-12T09:27:19.272Z,-1.28
2024-01-12T09:32:26.152Z,-1.14
2024-01-12T09:37:29.886Z,-1.13
2024-01-12T09:43:01.070Z,-1.11
2024-01-12T09:48:45.286Z,-0.94
2024-01-12T09:53:57.699Z,-0.78
2024-01-12T09:59:22.018Z,-0.72
2024-01-12T10:05:26.379Z,-0.72
2024-01-12T10:10:30.461Z,-0.58
2024-01-12T10:15:44.093Z,-0.43
2024-01-12T10:20:49.968Z,-0.26
2024-01-12T10:26:00.889Z,-0.21
2024-01-12T10:31:57.779Z,-0.19
2024-01-12T10:37:41.670Z,-0.16
2024-01-12T10:43:24.039Z,-0.16
2024-01-12T10:48:33.743Z,-0.22
2024-01-12T10:53:49.520Z,-0.24
2024-01-12T10:59:29.821Z,-0.26
2024-01-12T11:04:48.145Z,-0.30
2024-01-12T11:09:55.551Z,-0.24
2024-01-12T11:15:22.082Z,-0.21
2024-01-12T11:20:28.329Z,-0.15
2024-01-12T11:25:32.480Z,-0.16
2024-01-12T11:30:42.989Z,-0.18
2024-01-12T11:36:33.251Z,-0.09
2024-01-12T11:41:49.863Z,-0.05
2024-01-12T11:46:59.132Z,-0.01
2024-01-12T11:52:23.938Z,0.08
2024-01-12T11:58:01.061Z,0.17
2024-01-12T12:03:40.928Z,0.22
2024-01-12T12:08:57.298Z,0.24
2024-01-12T12:14:04.821Z,0.25
2024-01-12T12:19:40.142Z,0.30
2024-01-12T12:25:04.161Z,0.33
2024-01-12T12:30:17.255Z,0.33
2024-01-12T12:36:04.256Z,0.35
2024-01-12T12:42:02.944Z,0.40
2024-01-12T12:48:07.278Z,0.44
2024-01-12T13:10:56.946Z,0.65
2024-01-12T13:16:14.489Z,0.69
2024-01-12T13:26:40.675Z,0.73
2024-01-12T13:31:44.723Z,0.77
2024-01-12T13:36:50.879Z,0.81
2024-01-12T13:42:14.929Z,0.84
2024-01-12T13:47:31.600Z,0.88
2024-01-12T13:52:41.131Z,0.93
2024-01-12T13:58:30.363Z,0.99
2024-01-12T14:04:25.771Z,1.07
2024-01-12T14:09:38.433Z,1.13
2024-01-12T14:14:42.875Z,1.18
2024-01-12T14:19:57.449Z,1.22
2024-01-12T14:25:22.794Z,1.28
2024-01-12T14:30:40.778Z,1.30
2024-01-12T14:35:45.062Z,1.31
2024-01-12T14:41:09.544Z,1.34
2024-01-12T14:46:46.459Z,1.36
2024-01-12T14:52:14.487Z,1.40
2024-01-12T14:57:50.722Z,1.43
2024-01-12T15:03:01.152Z,1.46
2024-01-12T15:08:09.089Z,1.49
2024-01-12T15:13:29.703Z,1.51
2024-01-12T15:18:35.480Z,1.54
2024-01-12T15:23:40.877Z,1.55
2024-01-12T15:28:47.162Z,1.56
2024-01-12T15:33:51.315Z,1.56
2024-01-12T15:38:55.092Z,1.55
2024-01-12T15:44:01.434Z,1.54
2024-01-12T15:49:08.032Z,1.53
2024-01-12T15:54:14.576Z,1.53
2024-01-12T15:59:27.091Z,1.55
2024-01-12T16:04:45.586Z,1.57
2024-01-12T16:09:49.232Z,1.57
2024-01-12T16:14:53.198Z,1.56
2024-01-12T16:19:58.114Z,1.57
2024-01-12T16:25:04.263Z,1.56
2024-01-12T16:30:08.959Z,1.56
2024-01-12T16:35:14.058Z,1.56
2024-01-12T16:40:17.905Z,1.57
2024-01-12T16:45:24.437Z,1.55
2024-01-12T16:50:28.208Z,1.52
2024-01-12T16:55:32.370Z,1.51
2024-01-12T17:00:37.857Z,1.51
2024-01-12T17:05:41.472Z,1.51
2024-01-12T17:10:45.211Z,1.53
2024-01-12T17:15:48.712Z,1.50
2024-01-12T17:21:05.474Z,1.47
2024-01-12T17:26:14.787Z,1.48
2024-01-12T17:31:18.908Z,1.43
2024-01-12T17:36:22.964Z,1.43
2024-01-12T17:41:31.378Z,1.45
2024-01-12T17:46:52.158Z,1.47
2024-01-12T17:51:55.658Z,1.48
2024-01-12T17:57:08.380Z,1.50
2024-01-12T18:02:21.128Z,1.50
2024-01-12T18:07:24.683Z,1.48
2024-01-12T18:12:30.582Z,1.48
2024-01-12T18:17:34.379Z,1.46
2024-01-12T18:22:39.030Z,1.45
2024-01-12T18:27:47.843Z,1.44
2024-01-12T18:32:51.711Z,1.44
2024-01-12T18:37:55.476Z,1.40
2024-01-12T18:42:58.963Z,1.41
2024-01-12T18:48:03.702Z,1.41
2024-01-12T18:53:07.485Z,1.44
2024-01-12T18:58:11.291Z,1.44
2024-01-12T19:04:05.911Z,1.42
2024-01-12T19:09:38.878Z,1.42
2024-01-12T19:14:42.648Z,1.44
2024-01-12T19:20:07.749Z,1.46
2024-01-12T19:25:14.696Z,1.44
2024-01-12T19:30:19.601Z,1.44
2024-01-12T19:35:23.492Z,1.44
2024-01-12T19:40:50.182Z,1.43
2024-01-12T19:45:53.969Z,1.44
2024-01-12T19:51:00.987Z,1.44
2024-01-12T19:56:05.355Z,1.49
2024-01-12T20:01:10.947Z,1.48
2024-01-12T20:06:17.602Z,1.51
2024-01-12T20:11:30.562Z,1.52
2024-01-12T20:16:43.686Z,1.53
2024-01-12T20:21:50.211Z,1.54
2024-01-12T20:27:18.270Z,1.55
2024-01-12T20:32:21.995Z,1.60
2024-01-12T20:37:44.178Z,1.59
2024-01-12T20:43:19.641Z,1.62
2024-01-12T20:48:24.094Z,1.58
2024-01-12T20:53:37.111Z,1.62
2024-01-12T20:58:41.172Z,1.63
2024-01-12T21:04:28.346Z,1.65
2024-01-12T21:09:41.268Z,1.66
2024-01-12T21:14:53.645Z,1.62
2024-01-12T21:20:37.822Z,1.61
2024-01-12T21:25:49.381Z,1.60
2024-01-12T21:30:59.132Z,1.55
2024-01-12T21:36:12.121Z,1.51
2024-01-12T21:41:17.793Z,1.51
2024-01-12T21:46:21.601Z,1.50
2024-01-12T21:51:25.332Z,1.53
2024-01-12T21:56:29.661Z,1.55
2024-01-12T22:02:01.341Z,1.52
2024-01-12T22:07:31.077Z,1.50
2024-01-12T22:12:56.244Z,1.50
2024-01-12T22:18:00.388Z,1.51
2024-01-12T22:23:24.606Z,1.53
2024-01-12T22:29:00.862Z,1.54
2024-01-12T22:34:25.515Z,1.52
2024-01-12T22:40:29.794Z,1.51
2024-01-12T22:46:38.062Z,1.52
2024-01-12T22:52:23.168Z,1.54
2024-01-12T22:57:26.863Z,1.57
2024-01-12T23:03:01.964Z,1.56
2024-01-12T23:08:08.754Z,1.58
2024-01-12T23:13:21.779Z,1.57
2024-01-12T23:18:25.419Z,1.56
2024-01-12T23:23:54.572Z,1.54
2024-01-12T23:29:00.901Z,1.52
2024-01-12T23:34:39.368Z,1.51
2024-01-12T23:39:43.276Z,1.52
2024-01-12T23:44:48.254Z,1.53
2024-01-12T23:49:52.044Z,1.54
2024-01-12T23:55:56.225Z,1.53
